createdAt,value
2023-08-30T00:01:55.700Z,24.30
2023-08-30T00:04:23.640Z,15.60
2023-08-30T00:06:50.486Z,18.43
2023-08-30T00:09:17.424Z,17.47
2023-08-30T00:11:44.252Z,20.90
2023-08-30T00:14:11.884Z,27.03
2023-08-30T00:16:39.767Z,20.27
2023-08-30T00:19:07.476Z,23.60
2023-08-30T00:21:34.316Z,16.67
2023-08-30T00:24:01.833Z,15.90
2023-08-30T00:26:28.670Z,18.50
2023-08-30T00:28:55.515Z,16.63
2023-08-30T00:31:22.579Z,17.33
2023-08-30T00:33:50.466Z,17.20
2023-08-30T00:36:19.537Z,16.27
2023-08-30T00:38:46.484Z,16.47
2023-08-30T00:41:13.307Z,21.80
2023-08-30T00:43:40.614Z,25.53
2023-08-30T00:46:07.531Z,21.50
2023-08-30T00:48:34.439Z,18.53
2023-08-30T00:51:01.320Z,17.37
2023-08-30T00:53:28.292Z,21.30
2023-08-30T00:55:55.241Z,15.73
2023-08-30T00:58:22.297Z,19.07
2023-08-30T01:00:49.324Z,19.97
2023-08-30T01:03:16.320Z,20.13
2023-08-30T01:05:43.216Z,22.10
2023-08-30T01:08:12.123Z,20.70
2023-08-30T01:10:45.807Z,20.40
2023-08-30T01:13:19.461Z,19.73
2023-08-30T01:15:49.203Z,20.33
2023-08-30T01:18:19.382Z,20.97
2023-08-30T01:20:47.866Z,29.93
2023-08-30T01:23:26.041Z,20.23
2023-08-30T01:26:05.379Z,19.23
2023-08-30T01:28:34.052Z,17.37
2023-08-30T01:31:01.799Z,18.90
2023-08-30T01:33:30.166Z,18.00
2023-08-30T01:36:00.995Z,22.10
2023-08-30T01:38:33.036Z,19.93
2023-08-30T01:41:02.388Z,17.63
2023-08-30T01:43:30.696Z,18.70
2023-08-30T01:45:58.700Z,17.63
2023-08-30T01:48:26.283Z,25.13
2023-08-30T01:50:53.323Z,18.67
2023-08-30T01:53:21.254Z,22.13
2023-08-30T01:55:48.304Z,23.43
2023-08-30T01:58:15.357Z,21.80
2023-08-30T02:00:42.291Z,20.23
2023-08-30T02:03:13.695Z,23.33
2023-08-30T02:05:53.465Z,25.17
2023-08-30T02:08:23.362Z,23.50
2023-08-30T02:10:55.102Z,21.53
2023-08-30T02:13:27.965Z,25.50
2023-08-30T02:16:00.209Z,20.60
2023-08-30T02:21:03.048Z,24.20
2023-08-30T02:23:29.888Z,26.90
2023-08-30T02:25:56.996Z,22.13
2023-08-30T02:28:24.119Z,28.80
2023-08-30T02:30:54.077Z,22.03
2023-08-30T02:33:20.884Z,26.30
2023-08-30T02:35:47.779Z,28.43
2023-08-30T02:38:14.666Z,32.70
2023-08-30T02:40:41.604Z,21.20
2023-08-30T02:43:08.454Z,29.27
2023-08-30T02:45:36.003Z,26.50
2023-08-30T02:48:02.971Z,27.73
2023-08-30T02:50:29.869Z,24.57
2023-08-30T02:52:56.939Z,31.90
2023-08-30T02:55:23.860Z,30.63
2023-08-30T02:57:50.678Z,30.80
2023-08-30T03:00:17.701Z,31.90
2023-08-30T03:02:44.713Z,26.53
2023-08-30T03:05:13.280Z,28.33
2023-08-30T03:07:40.140Z,24.60
2023-08-30T03:10:07.583Z,30.10
2023-08-30T03:12:34.544Z,22.30
2023-08-30T03:15:01.532Z,27.00
2023-08-30T03:17:30.405Z,26.37
2023-08-30T03:19:59.354Z,28.57
2023-08-30T03:22:26.204Z,33.87
2023-08-30T03:24:53.102Z,32.53
2023-08-30T03:27:20.973Z,25.20
2023-08-30T03:29:47.835Z,32.53
2023-08-30T03:32:19.001Z,25.50
2023-08-30T03:34:46.896Z,26.43
2023-08-30T03:37:16.187Z,26.93
2023-08-30T03:39:43.468Z,24.60
2023-08-30T03:42:10.549Z,27.00
2023-08-30T03:44:39.521Z,24.90
2023-08-30T03:47:06.798Z,23.10
2023-08-30T03:49:33.631Z,25.87
2023-08-30T03:52:00.632Z,27.07
2023-08-30T03:54:27.517Z,25.03
2023-08-30T03:56:54.452Z,25.60
2023-08-30T03:59:22.891Z,26.10
2023-08-30T04:01:49.842Z,28.03
2023-08-30T04:04:16.788Z,31.83
2023-08-30T04:06:43.627Z,24.30
2023-08-30T04:09:11.513Z,27.63
2023-08-30T04:11:38.496Z,23.30
2023-08-30T04:14:05.386Z,29.90
2023-08-30T04:16:32.217Z,27.90
2023-08-30T04:18:59.096Z,27.27
2023-08-30T04:21:25.946Z,25.80
2023-08-30T04:23:52.819Z,31.60
2023-08-30T04:26:19.677Z,26.90
2023-08-30T04:28:46.539Z,30.57
2023-08-30T04:31:13.423Z,27.17
2023-08-30T04:33:40.745Z,24.17
2023-08-30T04:36:08.850Z,31.83
2023-08-30T04:38:39.916Z,26.03
2023-08-30T04:41:12.624Z,27.73
2023-08-30T04:43:39.528Z,27.00
2023-08-30T04:46:06.445Z,27.87
2023-08-30T04:48:33.331Z,23.97
2023-08-30T04:51:04.512Z,25.53
2023-08-30T04:53:31.640Z,29.27
2023-08-30T04:55:58.577Z,26.57
2023-08-30T04:58:25.425Z,27.63
2023-08-30T05:00:52.308Z,28.30
2023-08-30T05:03:19.289Z,24.10
2023-08-30T05:05:47.246Z,23.53
2023-08-30T05:08:14.090Z,24.83
2023-08-30T05:10:41.838Z,29.50
2023-08-30T05:13:08.900Z,25.17
2023-08-30T05:15:35.710Z,29.13
2023-08-30T05:18:02.607Z,23.90
2023-08-30T05:20:29.507Z,26.00
2023-08-30T05:22:56.435Z,24.30
2023-08-30T05:25:23.313Z,24.70
2023-08-30T05:27:50.235Z,33.00
2023-08-30T05:30:17.672Z,23.43
2023-08-30T05:32:44.590Z,24.30
2023-08-30T05:35:11.546Z,24.57
2023-08-30T05:37:38.413Z,21.43
2023-08-30T05:40:05.990Z,22.33
2023-08-30T05:42:32.885Z,23.87
2023-08-30T05:44:59.702Z,22.73
2023-08-30T05:47:26.637Z,23.27
2023-08-30T05:49:53.583Z,27.13
2023-08-30T05:52:20.486Z,19.70
2023-08-30T05:54:47.377Z,20.50
2023-08-30T05:57:14.330Z,18.07
2023-08-30T05:59:41.163Z,16.07
2023-08-30T06:02:08.057Z,19.17
2023-08-30T06:04:34.979Z,15.03
2023-08-30T06:07:01.805Z,14.60
2023-08-30T06:09:28.643Z,16.43
2023-08-30T06:11:55.520Z,15.57
2023-08-30T06:14:23.041Z,13.90
2023-08-30T06:16:50.238Z,13.57
2023-08-30T06:19:17.222Z,17.50
2023-08-30T06:21:44.051Z,12.17
2023-08-30T06:24:10.942Z,14.97
2023-08-30T06:26:37.772Z,13.13
2023-08-30T06:29:05.498Z,11.30
2023-08-30T06:31:33.890Z,14.77
2023-08-30T06:34:01.151Z,10.97
2023-08-30T06:36:28.111Z,11.00
2023-08-30T06:38:55.217Z,10.97
2023-08-30T06:41:22.058Z,11.10
2023-08-30T06:43:48.886Z,10.60
2023-08-30T06:46:15.807Z,13.50
2023-08-30T06:48:42.789Z,10.50
2023-08-30T06:51:09.697Z,9.80
2023-08-30T06:53:36.600Z,9.70
2023-08-30T06:56:03.743Z,10.57
2023-08-30T06:58:31.472Z,9.70
2023-08-30T07:00:58.881Z,11.13
2023-08-30T07:03:25.974Z,11.07
2023-08-30T07:05:53.597Z,12.00
2023-08-30T07:08:20.501Z,18.90
2023-08-30T07:10:47.638Z,14.17
2023-08-30T07:13:14.834Z,14.70
2023-08-30T07:15:43.177Z,123.23
2023-08-30T07:18:10.985Z,14.40
2023-08-30T07:20:40.591Z,13.73
2023-08-30T07:23:10.770Z,8.60
2023-08-30T07:25:39.109Z,9.30
2023-08-30T07:28:07.421Z,10.43
2023-08-30T07:30:36.653Z,9.33
2023-08-30T07:33:04.921Z,8.63
2023-08-30T07:35:33.992Z,9.40
2023-08-30T07:38:01.053Z,8.27
2023-08-30T07:40:29.690Z,8.50
2023-08-30T07:43:04.835Z,6.87
2023-08-30T07:45:31.767Z,35.87
2023-08-30T07:47:58.714Z,10.40
2023-08-30T07:50:25.700Z,8.23
2023-08-30T07:52:52.596Z,6.40
2023-08-30T07:55:19.443Z,7.70
2023-08-30T07:57:47.207Z,8.50
2023-08-30T08:00:14.715Z,7.67
2023-08-30T08:02:42.220Z,9.50
2023-08-30T08:05:09.374Z,10.20
2023-08-30T08:07:40.010Z,9.07
2023-08-30T08:10:07.647Z,10.00
2023-08-30T08:12:35.259Z,10.30
2023-08-30T08:15:03.137Z,10.50
2023-08-30T08:17:30.448Z,9.03
2023-08-30T08:19:57.365Z,12.00
2023-08-30T08:22:24.274Z,11.90
2023-08-30T08:24:52.799Z,18.33
2023-08-30T08:27:19.762Z,10.67
2023-08-30T08:29:46.688Z,20.73
2023-08-30T08:32:13.539Z,12.00
2023-08-30T08:34:40.346Z,11.53
2023-08-30T08:37:08.065Z,12.53
2023-08-30T08:39:35.410Z,10.70
2023-08-30T08:42:03.835Z,27.77
2023-08-30T08:44:33.321Z,10.37
2023-08-30T08:47:01.743Z,10.23
2023-08-30T08:49:30.624Z,13.57
2023-08-30T08:51:58.355Z,9.90
2023-08-30T08:54:26.201Z,9.10
2023-08-30T08:56:54.212Z,10.10
2023-08-30T08:59:22.425Z,8.77
2023-08-30T09:01:50.365Z,8.80
2023-08-30T09:04:17.322Z,11.60
2023-08-30T09:06:48.531Z,9.27
2023-08-30T09:09:16.170Z,13.40
2023-08-30T09:14:12.830Z,10.27
2023-08-30T09:16:39.807Z,13.17
2023-08-30T09:19:11.019Z,10.53
2023-08-30T09:21:38.554Z,16.67
2023-08-30T09:24:07.403Z,9.73
2023-08-30T09:26:36.903Z,12.80
2023-08-30T09:29:07.713Z,9.73
2023-08-30T09:31:38.836Z,8.33
2023-08-30T09:34:06.401Z,9.17
2023-08-30T09:36:40.786Z,7.90
2023-08-30T09:39:11.309Z,10.77
2023-08-30T09:41:41.499Z,9.10
2023-08-30T09:44:14.820Z,9.57
2023-08-30T09:46:54.068Z,7.77
2023-08-30T09:49:23.610Z,8.13
2023-08-30T09:51:53.822Z,7.30
2023-08-30T09:54:37.280Z,8.53
2023-08-30T09:57:06.715Z,6.40
2023-08-30T09:59:34.659Z,7.30
2023-08-30T10:02:02.607Z,17.13
2023-08-30T10:04:31.015Z,11.43
2023-08-30T10:07:01.226Z,8.70
2023-08-30T10:09:31.809Z,6.80
2023-08-30T10:11:59.719Z,7.23
2023-08-30T10:14:26.593Z,8.03
2023-08-30T10:17:04.546Z,9.67
2023-08-30T10:19:32.635Z,7.20
2023-08-30T10:22:04.792Z,7.20
2023-08-30T10:24:48.235Z,7.17
2023-08-30T10:27:20.672Z,11.73
2023-08-30T10:29:49.819Z,15.17
2023-08-30T10:32:23.739Z,8.77
2023-08-30T10:34:51.680Z,28.43
2023-08-30T10:37:27.300Z,8.10
2023-08-30T10:39:54.575Z,8.33
2023-08-30T10:42:24.583Z,5.93
2023-08-30T10:45:12.185Z,6.03
2023-08-30T10:47:40.903Z,6.90
2023-08-30T10:50:14.407Z,5.37
2023-08-30T10:52:41.644Z,6.57
2023-08-30T10:55:14.292Z,10.50
2023-08-30T10:57:45.877Z,6.40
2023-08-30T11:00:23.211Z,6.77
2023-08-30T11:02:51.542Z,6.30
2023-08-30T11:05:23.732Z,6.60
2023-08-30T11:07:52.133Z,5.77
2023-08-30T11:10:20.061Z,6.90
2023-08-30T11:12:48.234Z,5.97
2023-08-30T11:15:18.208Z,5.40
2023-08-30T11:17:45.548Z,5.73
2023-08-30T11:20:21.783Z,4.90
2023-08-30T11:22:50.366Z,4.93
2023-08-30T11:25:18.268Z,4.80
2023-08-30T11:27:45.618Z,43.47
2023-08-30T11:30:13.189Z,5.40
2023-08-30T11:32:41.659Z,4.00
2023-08-30T11:35:09.309Z,4.03
2023-08-30T11:37:36.254Z,3.90
2023-08-30T11:40:05.322Z,3.60
2023-08-30T11:42:33.350Z,3.63
2023-08-30T11:45:01.174Z,3.63
2023-08-30T11:47:28.638Z,4.00
2023-08-30T11:49:57.550Z,9.60
2023-08-30T11:52:25.397Z,4.80
2023-08-30T11:54:52.862Z,4.00
2023-08-30T11:57:20.411Z,5.10
2023-08-30T11:59:48.985Z,5.33
2023-08-30T12:02:17.480Z,5.50
2023-08-30T12:04:46.821Z,5.20
2023-08-30T12:07:28.138Z,4.90
2023-08-30T12:10:18.653Z,5.27
2023-08-30T12:12:48.638Z,4.57
2023-08-30T12:15:16.736Z,5.93
2023-08-30T12:17:43.912Z,7.67
2023-08-30T12:20:19.079Z,5.00
2023-08-30T12:22:46.057Z,5.80
2023-08-30T12:25:19.816Z,5.30
2023-08-30T12:27:47.754Z,4.80
2023-08-30T12:30:18.370Z,4.50
2023-08-30T12:32:48.524Z,7.30
2023-08-30T12:35:16.150Z,5.10
2023-08-30T12:37:43.624Z,5.33
2023-08-30T12:40:11.027Z,5.83
2023-08-30T12:42:38.668Z,5.53
2023-08-30T12:45:06.432Z,6.57
2023-08-30T12:47:33.339Z,6.07
2023-08-30T12:50:00.247Z,7.03
2023-08-30T12:52:27.262Z,9.70
2023-08-30T12:54:55.333Z,6.90
2023-08-30T12:57:22.358Z,7.43
2023-08-30T12:59:49.266Z,6.40
2023-08-30T13:02:16.234Z,7.10
2023-08-30T13:04:43.397Z,6.00
2023-08-30T13:07:10.300Z,6.53
2023-08-30T13:09:37.160Z,5.60
2023-08-30T13:12:04.987Z,5.80
2023-08-30T13:14:32.029Z,5.37
2023-08-30T13:16:59.483Z,5.00
2023-08-30T13:19:26.740Z,5.70
2023-08-30T13:21:53.605Z,4.13
2023-08-30T13:24:20.471Z,5.33
2023-08-30T13:26:47.530Z,4.67
2023-08-30T13:29:14.473Z,5.00
2023-08-30T13:31:41.288Z,5.50
2023-08-30T13:34:08.144Z,4.73
2023-08-30T13:36:35.023Z,5.63
2023-08-30T13:39:01.847Z,5.97
2023-08-30T13:41:28.803Z,6.60
2023-08-30T13:43:57.956Z,6.37
2023-08-30T13:46:26.200Z,6.50
2023-08-30T13:48:53.179Z,6.10
2023-08-30T13:51:24.586Z,6.67
2023-08-30T13:53:52.193Z,6.57
2023-08-30T13:56:20.138Z,6.30
2023-08-30T13:58:47.404Z,7.60
2023-08-30T14:01:14.244Z,7.50
2023-08-30T14:03:41.254Z,8.13
2023-08-30T14:06:08.224Z,10.40
2023-08-30T14:08:35.182Z,9.17
2023-08-30T14:11:02.646Z,8.10
2023-08-30T14:13:33.809Z,9.47
2023-08-30T14:16:04.988Z,8.43
2023-08-30T14:21:03.494Z,7.30
2023-08-30T14:23:31.238Z,7.90
2023-08-30T14:26:04.975Z,7.27
2023-08-30T14:28:31.831Z,7.37
2023-08-30T14:30:58.657Z,6.10
2023-08-30T14:33:25.485Z,5.97
2023-08-30T14:35:52.316Z,6.57
2023-08-30T14:38:20.758Z,6.37
2023-08-30T14:41:02.727Z,7.30
2023-08-30T14:43:30.194Z,6.87
2023-08-30T14:46:10.832Z,6.23
2023-08-30T14:48:38.962Z,7.80
2023-08-30T14:51:07.091Z,7.63
2023-08-30T14:53:34.208Z,8.10
2023-08-30T14:56:01.132Z,6.53
2023-08-30T14:58:28.921Z,7.13
2023-08-30T15:00:55.741Z,6.40
2023-08-30T15:03:22.775Z,7.10
2023-08-30T15:05:59.600Z,7.50
2023-08-30T15:08:26.570Z,8.30
2023-08-30T15:10:53.504Z,8.37
2023-08-30T15:13:21.460Z,9.40
2023-08-30T15:15:48.502Z,10.03
2023-08-30T15:18:16.246Z,8.10
2023-08-30T15:20:43.761Z,12.50
2023-08-30T15:23:18.990Z,6.00
2023-08-30T15:25:50.227Z,7.87
2023-08-30T15:28:17.402Z,6.83
2023-08-30T15:30:45.652Z,21.90
2023-08-30T15:33:15.335Z,8.00
2023-08-30T15:35:47.526Z,5.50
2023-08-30T15:38:15.446Z,6.53
2023-08-30T15:40:42.834Z,5.77
2023-08-30T15:43:10.071Z,7.70
2023-08-30T15:45:37.548Z,12.40
2023-08-30T15:48:04.923Z,10.20
2023-08-30T15:50:31.830Z,15.20
2023-08-30T15:52:58.782Z,5.43
2023-08-30T15:55:29.750Z,5.67
2023-08-30T15:57:56.712Z,3.73
2023-08-30T16:00:24.053Z,3.07
2023-08-30T16:02:53.581Z,4.53
2023-08-30T16:05:20.804Z,1.73
2023-08-30T16:07:47.659Z,3.30
2023-08-30T16:10:14.636Z,3.30
2023-08-30T16:12:41.628Z,10.83
2023-08-30T16:15:08.749Z,5.53
2023-08-30T16:29:19.387Z,6.13
2023-08-30T16:31:46.250Z,3.17
2023-08-30T16:34:13.151Z,1.53
2023-08-30T16:36:40.018Z,1.20
2023-08-30T16:39:07.861Z,4.93
2023-08-30T16:41:34.901Z,3.13
2023-08-30T16:44:01.751Z,2.57
2023-08-30T16:46:28.615Z,3.33
2023-08-30T16:48:55.435Z,4.57
2023-08-30T16:51:22.349Z,4.43
2023-08-30T16:53:49.395Z,3.93
2023-08-30T16:56:17.135Z,1.90
2023-08-30T16:58:44.082Z,2.53
2023-08-30T17:01:11.707Z,2.90
2023-08-30T17:03:38.736Z,3.00
2023-08-30T17:06:06.800Z,2.47
2023-08-30T17:08:33.908Z,5.20
2023-08-30T17:11:08.428Z,3.73
2023-08-30T17:13:35.760Z,4.43
2023-08-30T17:16:04.322Z,2.40
2023-08-30T17:18:32.761Z,3.43
2023-08-30T17:20:59.903Z,5.87
2023-08-30T17:23:26.775Z,5.43
2023-08-30T17:25:53.716Z,1.20
2023-08-30T17:30:46.769Z,3.73
2023-08-30T17:33:14.153Z,2.90
2023-08-30T17:35:41.341Z,2.50
2023-08-30T17:38:08.183Z,1.83
2023-08-30T17:40:35.888Z,5.10
2023-08-30T17:43:06.061Z,5.67
2023-08-30T17:45:33.841Z,2.37
2023-08-30T17:48:01.285Z,2.83
2023-08-30T17:50:28.730Z,10.60
2023-08-30T17:52:55.589Z,3.67
2023-08-30T17:55:22.969Z,3.27
2023-08-30T17:57:49.905Z,3.83
2023-08-30T18:00:17.002Z,4.30
2023-08-30T18:02:46.804Z,1.73
2023-08-30T18:05:14.601Z,2.70
2023-08-30T18:07:41.666Z,3.73
2023-08-30T18:10:09.005Z,3.00
2023-08-30T18:12:35.864Z,2.73
2023-08-30T18:15:03.515Z,5.23
2023-08-30T18:17:32.198Z,5.40
2023-08-30T18:19:59.719Z,3.07
2023-08-30T18:22:26.660Z,4.10
2023-08-30T18:24:53.514Z,2.07
2023-08-30T18:27:20.674Z,1.63
2023-08-30T18:29:48.866Z,3.30
2023-08-30T18:32:16.648Z,1.50
2023-08-30T18:34:46.557Z,2.23
2023-08-30T18:37:13.451Z,1.50
2023-08-30T18:39:40.760Z,2.80
2023-08-30T18:42:07.925Z,1.93
2023-08-30T18:44:34.781Z,2.13
2023-08-30T18:47:01.651Z,1.93
2023-08-30T18:49:28.488Z,3.90
2023-08-30T18:51:55.527Z,4.87
2023-08-30T18:54:24.761Z,2.47
2023-08-30T18:56:51.925Z,5.53
2023-08-30T18:59:18.962Z,4.67
2023-08-30T19:01:45.805Z,4.60
2023-08-30T19:04:12.679Z,1.70
2023-08-30T19:06:39.485Z,4.87
2023-08-30T19:09:06.842Z,3.40
2023-08-30T19:11:35.010Z,3.30
2023-08-30T19:14:01.875Z,3.93
2023-08-30T19:16:30.630Z,4.73
2023-08-30T19:18:57.628Z,1.47
2023-08-30T19:21:24.538Z,3.30
2023-08-30T19:23:52.053Z,3.27
2023-08-30T19:26:19.127Z,6.20
2023-08-30T19:28:46.702Z,2.93
2023-08-30T19:31:13.632Z,10.40
2023-08-30T19:33:40.519Z,5.20
2023-08-30T19:36:07.398Z,3.73
2023-08-30T19:38:34.287Z,5.10
2023-08-30T19:41:01.155Z,3.23
2023-08-30T19:43:28.016Z,2.53
2023-08-30T19:46:03.406Z,2.30
2023-08-30T19:48:30.837Z,3.97
2023-08-30T19:50:58.479Z,7.40
2023-08-30T19:53:25.631Z,17.57
2023-08-30T19:55:53.299Z,6.70
2023-08-30T19:58:21.584Z,3.33
2023-08-30T20:00:50.216Z,2.20
2023-08-30T20:03:17.855Z,6.87
2023-08-30T20:05:51.887Z,9.70
2023-08-30T20:08:19.419Z,5.40
2023-08-30T20:10:47.482Z,6.53
2023-08-30T20:13:14.846Z,2.77
2023-08-30T20:15:43.032Z,2.47
2023-08-30T20:18:11.178Z,5.73
2023-08-30T20:20:39.539Z,3.77
2023-08-30T20:23:07.300Z,1.93
2023-08-30T20:25:36.608Z,2.97
2023-08-30T20:28:04.047Z,3.10
2023-08-30T20:30:31.053Z,9.53
2023-08-30T20:32:58.000Z,5.07
2023-08-30T20:35:25.092Z,4.43
2023-08-30T20:37:54.728Z,3.93
2023-08-30T20:40:21.608Z,2.00
2023-08-30T20:42:48.461Z,4.60
2023-08-30T20:45:15.882Z,10.80
2023-08-30T20:47:42.798Z,4.83
2023-08-30T20:50:12.633Z,2.50
2023-08-30T20:52:39.565Z,6.90
2023-08-30T20:55:08.264Z,2.97
2023-08-30T20:57:35.814Z,9.63
2023-08-30T21:00:06.879Z,11.03
2023-08-30T21:02:35.403Z,5.97
2023-08-30T21:05:02.954Z,6.23
2023-08-30T21:07:29.879Z,2.37
2023-08-30T21:09:56.905Z,8.57
2023-08-30T21:12:23.738Z,4.53
2023-08-30T21:14:50.594Z,4.13
2023-08-30T21:17:17.521Z,13.43
2023-08-30T21:19:44.448Z,7.27
2023-08-30T21:22:11.344Z,4.80
2023-08-30T21:24:39.857Z,3.03
2023-08-30T21:27:06.684Z,4.83
2023-08-30T21:29:33.949Z,3.17
2023-08-30T21:32:01.016Z,8.60
2023-08-30T21:34:28.024Z,3.93
2023-08-30T21:36:55.296Z,2.50
2023-08-30T21:39:22.199Z,2.37
2023-08-30T21:41:49.102Z,2.60
2023-08-30T21:44:16.021Z,8.23
2023-08-30T21:46:45.406Z,5.93
2023-08-30T21:49:12.444Z,3.00
2023-08-30T21:51:39.363Z,2.53
2023-08-30T21:54:06.756Z,7.47
2023-08-30T21:56:34.908Z,6.57
2023-08-30T21:59:02.477Z,2.70
2023-08-30T22:01:29.677Z,7.57
2023-08-30T22:03:56.586Z,7.07
2023-08-30T22:06:23.535Z,3.20
2023-08-30T22:08:50.922Z,3.73
2023-08-30T22:11:17.810Z,6.30
2023-08-30T22:13:44.676Z,8.10
2023-08-30T22:16:11.599Z,2.80
2023-08-30T22:18:38.467Z,8.60
2023-08-30T22:21:05.327Z,3.10
2023-08-30T22:23:32.229Z,4.53
2023-08-30T22:25:59.177Z,2.40
2023-08-30T22:30:54.997Z,8.43
2023-08-30T22:33:22.171Z,6.13
2023-08-30T22:35:49.203Z,22.03
2023-08-30T22:38:16.060Z,9.67
2023-08-30T22:40:42.902Z,3.17
2023-08-30T22:43:11.021Z,6.30
2023-08-30T22:45:38.168Z,6.07
2023-08-30T22:48:06.665Z,7.73
2023-08-30T22:50:34.968Z,11.57
2023-08-30T22:53:01.838Z,5.77
2023-08-30T22:55:28.752Z,4.37
2023-08-30T22:57:56.117Z,7.10
2023-08-30T23:00:23.579Z,3.70
2023-08-30T23:02:52.021Z,4.63
2023-08-30T23:05:19.089Z,4.03
2023-08-30T23:07:46.570Z,5.50
2023-08-30T23:10:14.590Z,5.97
2023-08-30T23:12:42.180Z,8.47
2023-08-30T23:15:09.520Z,6.30
2023-08-30T23:17:44.710Z,6.40
2023-08-30T23:20:16.672Z,4.40
2023-08-30T23:22:44.207Z,20.83
2023-08-30T23:25:11.381Z,7.30
2023-08-30T23:27:38.301Z,8.03
2023-08-30T23:30:07.467Z,11.37
2023-08-30T23:32:34.753Z,7.17
2023-08-30T23:35:02.234Z,8.23
2023-08-30T23:37:29.793Z,13.07
2023-08-30T23:39:56.684Z,5.90
2023-08-30T23:42:23.680Z,6.07
2023-08-30T23:44:50.818Z,8.03
2023-08-30T23:47:17.683Z,5.43
2023-08-30T23:49:44.540Z,9.73
2023-08-30T23:52:11.413Z,13.33
2023-08-30T23:54:38.283Z,5.10
2023-08-30T23:57:05.359Z,4.93
2023-08-30T23:59:35.729Z,4.13
